sensor_id;sensor_type;location;lat;lon;timestamp;P1;durP1;ratioP1;P2;durP2;ratioP2
72895;SDS011;61036;53.224;6.554;2022-08-20T00:00:16;12.23;;;7.47;;
72895;SDS011;61036;53.224;6.554;2022-08-20T00:03:06;13.17;;;7.17;;
72895;SDS011;61036;53.224;6.554;2022-08-20T00:05:49;15.40;;;7.17;;
72895;SDS011;61036;53.224;6.554;2022-08-20T00:08:19;11.17;;;6.20;;
72895;SDS011;61036;53.224;6.554;2022-08-20T00:10:47;12.50;;;6.63;;
72895;SDS011;61036;53.224;6.554;2022-08-20T00:13:16;11.60;;;6.87;;
72895;SDS011;61036;53.224;6.554;2022-08-20T00:15:44;9.17;;;6.70;;
72895;SDS011;61036;53.224;6.554;2022-08-20T00:18:11;10.13;;;6.80;;
72895;SDS011;61036;53.224;6.554;2022-08-20T00:20:39;10.13;;;6.20;;
72895;SDS011;61036;53.224;6.554;2022-08-20T00:23:07;10.77;;;5.90;;
72895;SDS011;61036;53.224;6.554;2022-08-20T00:25:33;10.27;;;6.30;;
72895;SDS011;61036;53.224;6.554;2022-08-20T00:27:59;8.70;;;5.83;;
72895;SDS011;61036;53.224;6.554;2022-08-20T00:30:28;13.60;;;6.03;;
72895;SDS011;61036;53.224;6.554;2022-08-20T00:32:57;8.80;;;5.10;;
72895;SDS011;61036;53.224;6.554;2022-08-20T00:35:27;10.17;;;6.40;;
72895;SDS011;61036;53.224;6.554;2022-08-20T00:37:55;9.77;;;6.07;;
72895;SDS011;61036;53.224;6.554;2022-08-20T00:40:22;12.30;;;5.63;;
72895;SDS011;61036;53.224;6.554;2022-08-20T00:42:53;11.43;;;5.83;;
72895;SDS011;61036;53.224;6.554;2022-08-20T00:45:23;9.40;;;5.73;;
72895;SDS011;61036;53.224;6.554;2022-08-20T00:47:54;9.67;;;5.57;;
72895;SDS011;61036;53.224;6.554;2022-08-20T00:50:21;9.67;;;5.50;;
72895;SDS011;61036;53.224;6.554;2022-08-20T00:52:50;10.53;;;5.90;;
72895;SDS011;61036;53.224;6.554;2022-08-20T00:55:19;12.53;;;6.20;;
72895;SDS011;61036;53.224;6.554;2022-08-20T00:57:47;9.37;;;5.77;;
72895;SDS011;61036;53.224;6.554;2022-08-20T01:00:23;10.70;;;5.83;;
72895;SDS011;61036;53.224;6.554;2022-08-20T01:02:55;12.77;;;6.50;;
72895;SDS011;61036;53.224;6.554;2022-08-20T01:05:25;9.57;;;6.00;;
72895;SDS011;61036;53.224;6.554;2022-08-20T01:07:53;8.57;;;5.83;;
72895;SDS011;61036;53.224;6.554;2022-08-20T01:10:22;10.60;;;5.80;;
72895;SDS011;61036;53.224;6.554;2022-08-20T01:12:54;12.13;;;6.07;;
72895;SDS011;61036;53.224;6.554;2022-08-20T01:15:22;12.27;;;6.40;;
72895;SDS011;61036;53.224;6.554;2022-08-20T01:17:52;7.53;;;5.90;;
72895;SDS011;61036;53.224;6.554;2022-08-20T01:20:23;16.90;;;6.90;;
72895;SDS011;61036;53.224;6.554;2022-08-20T01:22:57;11.03;;;6.07;;
72895;SDS011;61036;53.224;6.554;2022-08-20T01:25:50;11.83;;;6.10;;
72895;SDS011;61036;53.224;6.554;2022-08-20T01:31:01;10.67;;;6.47;;
72895;SDS011;61036;53.224;6.554;2022-08-20T01:33:27;10.67;;;6.20;;
72895;SDS011;61036;53.224;6.554;2022-08-20T01:35:53;12.90;;;6.20;;
72895;SDS011;61036;53.224;6.554;2022-08-20T01:38:19;8.53;;;6.00;;
72895;SDS011;61036;53.224;6.554;2022-08-20T01:43:44;9.00;;;5.90;;
72895;SDS011;61036;53.224;6.554;2022-08-20T01:46:11;9.40;;;6.27;;
72895;SDS011;61036;53.224;6.554;2022-08-20T01:48:38;9.83;;;6.13;;
72895;SDS011;61036;53.224;6.554;2022-08-20T01:51:11;11.63;;;6.77;;
72895;SDS011;61036;53.224;6.554;2022-08-20T01:53:46;10.73;;;6.03;;
72895;SDS011;61036;53.224;6.554;2022-08-20T01:56:16;13.10;;;6.53;;
72895;SDS011;61036;53.224;6.554;2022-08-20T01:58:46;9.00;;;6.20;;
72895;SDS011;61036;53.224;6.554;2022-08-20T02:01:19;10.00;;;6.47;;
72895;SDS011;61036;53.224;6.554;2022-08-20T02:03:52;11.70;;;6.57;;
72895;SDS011;61036;53.224;6.554;2022-08-20T02:06:19;11.33;;;6.40;;
72895;SDS011;61036;53.224;6.554;2022-08-20T02:08:50;9.03;;;6.43;;
72895;SDS011;61036;53.224;6.554;2022-08-20T02:11:21;11.13;;;6.57;;
72895;SDS011;61036;53.224;6.554;2022-08-20T02:13:48;10.87;;;6.17;;
72895;SDS011;61036;53.224;6.554;2022-08-20T02:16:23;9.13;;;6.17;;
72895;SDS011;61036;53.224;6.554;2022-08-20T02:18:55;9.60;;;6.33;;
72895;SDS011;61036;53.224;6.554;2022-08-20T02:21:34;12.07;;;6.43;;
72895;SDS011;61036;53.224;6.554;2022-08-20T02:24:04;11.10;;;7.03;;
72895;SDS011;61036;53.224;6.554;2022-08-20T02:26:29;12.50;;;6.43;;
72895;SDS011;61036;53.224;6.554;2022-08-20T02:28:58;9.20;;;6.27;;
72895;SDS011;61036;53.224;6.554;2022-08-20T02:31:24;11.33;;;6.77;;
72895;SDS011;61036;53.224;6.554;2022-08-20T02:33:50;10.37;;;6.47;;
72895;SDS011;61036;53.224;6.554;2022-08-20T02:36:16;9.30;;;6.43;;
72895;SDS011;61036;53.224;6.554;2022-08-20T02:38:44;11.30;;;5.97;;
72895;SDS011;61036;53.224;6.554;2022-08-20T02:41:11;9.87;;;5.97;;
72895;SDS011;61036;53.224;6.554;2022-08-20T02:43:37;8.17;;;5.67;;
72895;SDS011;61036;53.224;6.554;2022-08-20T02:46:04;9.17;;;5.63;;
72895;SDS011;61036;53.224;6.554;2022-08-20T02:48:31;10.40;;;6.67;;
72895;SDS011;61036;53.224;6.554;2022-08-20T02:50:59;9.60;;;5.87;;
72895;SDS011;61036;53.224;6.554;2022-08-20T02:53:27;9.77;;;5.63;;
72895;SDS011;61036;53.224;6.554;2022-08-20T02:55:55;9.43;;;4.93;;
72895;SDS011;61036;53.224;6.554;2022-08-20T02:58:25;8.90;;;4.67;;
72895;SDS011;61036;53.224;6.554;2022-08-20T03:00:51;7.80;;;5.20;;
72895;SDS011;61036;53.224;6.554;2022-08-20T03:03:17;8.87;;;5.03;;
72895;SDS011;61036;53.224;6.554;2022-08-20T03:05:46;12.40;;;4.93;;
72895;SDS011;61036;53.224;6.554;2022-08-20T03:08:14;8.03;;;4.60;;
72895;SDS011;61036;53.224;6.554;2022-08-20T03:10:41;9.40;;;4.40;;
72895;SDS011;61036;53.224;6.554;2022-08-20T03:13:08;8.97;;;4.20;;
72895;SDS011;61036;53.224;6.554;2022-08-20T03:15:39;10.07;;;4.23;;
72895;SDS011;61036;53.224;6.554;2022-08-20T03:18:10;8.20;;;4.50;;
72895;SDS011;61036;53.224;6.554;2022-08-20T03:20:36;8.70;;;4.30;;
72895;SDS011;61036;53.224;6.554;2022-08-20T03:23:05;7.90;;;3.90;;
72895;SDS011;61036;53.224;6.554;2022-08-20T03:25:30;7.57;;;3.73;;
72895;SDS011;61036;53.224;6.554;2022-08-20T03:27:57;7.93;;;3.77;;
72895;SDS011;61036;53.224;6.554;2022-08-20T03:30:24;8.27;;;3.83;;
72895;SDS011;61036;53.224;6.554;2022-08-20T03:32:52;11.57;;;3.80;;
72895;SDS011;61036;53.224;6.554;2022-08-20T03:35:19;10.90;;;3.77;;
72895;SDS011;61036;53.224;6.554;2022-08-20T03:37:46;9.53;;;3.47;;
72895;SDS011;61036;53.224;6.554;2022-08-20T03:40:14;10.00;;;3.83;;
72895;SDS011;61036;53.224;6.554;2022-08-20T03:42:43;8.97;;;3.63;;
72895;SDS011;61036;53.224;6.554;2022-08-20T03:45:10;9.73;;;3.60;;
72895;SDS011;61036;53.224;6.554;2022-08-20T03:47:40;10.77;;;3.67;;
72895;SDS011;61036;53.224;6.554;2022-08-20T03:50:07;7.70;;;2.90;;
72895;SDS011;61036;53.224;6.554;2022-08-20T03:52:36;9.57;;;3.60;;
72895;SDS011;61036;53.224;6.554;2022-08-20T03:55:05;7.63;;;2.93;;
72895;SDS011;61036;53.224;6.554;2022-08-20T03:57:34;6.70;;;2.87;;
72895;SDS011;61036;53.224;6.554;2022-08-20T04:00:03;7.93;;;2.83;;
72895;SDS011;61036;53.224;6.554;2022-08-20T04:02:36;8.40;;;3.30;;
72895;SDS011;61036;53.224;6.554;2022-08-20T04:05:04;8.07;;;3.47;;
72895;SDS011;61036;53.224;6.554;2022-08-20T04:07:30;10.53;;;3.27;;
72895;SDS011;61036;53.224;6.554;2022-08-20T04:09:55;9.33;;;3.33;;
72895;SDS011;61036;53.224;6.554;2022-08-20T04:12:22;8.17;;;2.93;;
72895;SDS011;61036;53.224;6.554;2022-08-20T04:14:48;6.97;;;3.30;;
72895;SDS011;61036;53.224;6.554;2022-08-20T04:17:15;6.53;;;2.63;;
72895;SDS011;61036;53.224;6.554;2022-08-20T04:19:42;9.57;;;3.37;;
72895;SDS011;61036;53.224;6.554;2022-08-20T04:22:09;8.23;;;3.17;;
72895;SDS011;61036;53.224;6.554;2022-08-20T04:24:38;5.97;;;2.43;;
72895;SDS011;61036;53.224;6.554;2022-08-20T04:27:04;8.40;;;3.00;;
72895;SDS011;61036;53.224;6.554;2022-08-20T04:29:32;7.73;;;2.70;;
72895;SDS011;61036;53.224;6.554;2022-08-20T04:32:00;8.03;;;2.93;;
72895;SDS011;61036;53.224;6.554;2022-08-20T04:34:27;9.77;;;2.70;;
72895;SDS011;61036;53.224;6.554;2022-08-20T04:36:54;8.07;;;2.70;;
72895;SDS011;61036;53.224;6.554;2022-08-20T04:39:22;8.23;;;2.47;;
72895;SDS011;61036;53.224;6.554;2022-08-20T04:41:48;7.33;;;2.43;;
72895;SDS011;61036;53.224;6.554;2022-08-20T04:44:17;7.73;;;2.63;;
72895;SDS011;61036;53.224;6.554;2022-08-20T04:46:43;7.50;;;2.47;;
72895;SDS011;61036;53.224;6.554;2022-08-20T04:49:11;7.07;;;2.30;;
72895;SDS011;61036;53.224;6.554;2022-08-20T04:51:36;10.67;;;2.97;;
72895;SDS011;61036;53.224;6.554;2022-08-20T04:54:03;9.00;;;2.70;;
72895;SDS011;61036;53.224;6.554;2022-08-20T04:56:31;6.30;;;2.37;;
72895;SDS011;61036;53.224;6.554;2022-08-20T04:59:05;6.20;;;2.47;;
72895;SDS011;61036;53.224;6.554;2022-08-20T05:01:31;7.30;;;2.60;;
72895;SDS011;61036;53.224;6.554;2022-08-20T05:03:58;6.00;;;2.37;;
72895;SDS011;61036;53.224;6.554;2022-08-20T05:06:27;11.27;;;2.83;;
72895;SDS011;61036;53.224;6.554;2022-08-20T05:08:58;10.93;;;3.03;;
72895;SDS011;61036;53.224;6.554;2022-08-20T05:11:24;7.23;;;2.47;;
72895;SDS011;61036;53.224;6.554;2022-08-20T05:13:53;6.47;;;2.40;;
72895;SDS011;61036;53.224;6.554;2022-08-20T05:16:19;6.03;;;2.50;;
72895;SDS011;61036;53.224;6.554;2022-08-20T05:18:45;7.10;;;2.73;;
72895;SDS011;61036;53.224;6.554;2022-08-20T05:21:11;6.30;;;2.47;;
72895;SDS011;61036;53.224;6.554;2022-08-20T05:23:38;6.43;;;2.37;;
72895;SDS011;61036;53.224;6.554;2022-08-20T05:26:07;7.50;;;2.50;;
72895;SDS011;61036;53.224;6.554;2022-08-20T05:28:34;6.63;;;2.30;;
72895;SDS011;61036;53.224;6.554;2022-08-20T05:31:02;7.50;;;2.40;;
72895;SDS011;61036;53.224;6.554;2022-08-20T05:33:31;8.27;;;2.73;;
72895;SDS011;61036;53.224;6.554;2022-08-20T05:35:57;6.67;;;2.50;;
72895;SDS011;61036;53.224;6.554;2022-08-20T05:38:27;6.87;;;2.53;;
72895;SDS011;61036;53.224;6.554;2022-08-20T05:40:53;10.40;;;2.60;;
72895;SDS011;61036;53.224;6.554;2022-08-20T05:43:19;7.30;;;2.47;;
72895;SDS011;61036;53.224;6.554;2022-08-20T05:45:48;7.07;;;2.50;;
72895;SDS011;61036;53.224;6.554;2022-08-20T05:48:17;6.50;;;2.57;;
72895;SDS011;61036;53.224;6.554;2022-08-20T05:50:46;4.57;;;2.40;;
72895;SDS011;61036;53.224;6.554;2022-08-20T05:53:16;6.93;;;3.07;;
72895;SDS011;61036;53.224;6.554;2022-08-20T05:55:43;9.00;;;3.13;;
72895;SDS011;61036;53.224;6.554;2022-08-20T05:58:16;8.07;;;3.17;;
72895;SDS011;61036;53.224;6.554;2022-08-20T06:00:53;8.63;;;2.50;;
72895;SDS011;61036;53.224;6.554;2022-08-20T06:03:20;8.50;;;2.97;;
72895;SDS011;61036;53.224;6.554;2022-08-20T06:06:05;7.07;;;2.17;;
72895;SDS011;61036;53.224;6.554;2022-08-20T06:08:32;6.23;;;2.87;;
72895;SDS011;61036;53.224;6.554;2022-08-20T06:11:00;7.73;;;2.50;;
72895;SDS011;61036;53.224;6.554;2022-08-20T06:13:26;10.03;;;2.57;;
72895;SDS011;61036;53.224;6.554;2022-08-20T06:15:54;7.57;;;2.23;;
72895;SDS011;61036;53.224;6.554;2022-08-20T06:18:20;8.20;;;2.67;;
72895;SDS011;61036;53.224;6.554;2022-08-20T06:20:47;7.00;;;2.27;;
72895;SDS011;61036;53.224;6.554;2022-08-20T06:23:13;6.97;;;2.13;;
72895;SDS011;61036;53.224;6.554;2022-08-20T06:25:39;7.70;;;2.50;;
72895;SDS011;61036;53.224;6.554;2022-08-20T06:28:05;6.97;;;2.30;;
72895;SDS011;61036;53.224;6.554;2022-08-20T06:30:30;8.07;;;2.20;;
72895;SDS011;61036;53.224;6.554;2022-08-20T06:32:57;7.90;;;2.17;;
72895;SDS011;61036;53.224;6.554;2022-08-20T06:35:22;7.50;;;2.30;;
72895;SDS011;61036;53.224;6.554;2022-08-20T06:37:49;7.90;;;2.07;;
72895;SDS011;61036;53.224;6.554;2022-08-20T06:40:21;8.70;;;2.17;;
72895;SDS011;61036;53.224;6.554;2022-08-20T06:42:51;7.67;;;2.27;;
72895;SDS011;61036;53.224;6.554;2022-08-20T06:45:20;7.47;;;1.87;;
72895;SDS011;61036;53.224;6.554;2022-08-20T06:47:48;5.83;;;1.77;;
72895;SDS011;61036;53.224;6.554;2022-08-20T06:50:17;5.73;;;1.40;;
72895;SDS011;61036;53.224;6.554;2022-08-20T06:52:46;6.83;;;2.13;;
72895;SDS011;61036;53.224;6.554;2022-08-20T06:55:13;5.83;;;1.50;;
72895;SDS011;61036;53.224;6.554;2022-08-20T06:57:40;6.27;;;1.70;;
72895;SDS011;61036;53.224;6.554;2022-08-20T07:00:12;7.00;;;1.90;;
72895;SDS011;61036;53.224;6.554;2022-08-20T07:02:40;4.90;;;1.70;;
72895;SDS011;61036;53.224;6.554;2022-08-20T07:05:07;6.23;;;1.60;;
72895;SDS011;61036;53.224;6.554;2022-08-20T07:07:33;6.80;;;1.63;;
72895;SDS011;61036;53.224;6.554;2022-08-20T07:10:00;5.27;;;1.50;;
72895;SDS011;61036;53.224;6.554;2022-08-20T07:12:27;5.73;;;1.87;;
72895;SDS011;61036;53.224;6.554;2022-08-20T07:14:53;7.87;;;1.67;;
72895;SDS011;61036;53.224;6.554;2022-08-20T07:17:19;5.47;;;1.60;;
72895;SDS011;61036;53.224;6.554;2022-08-20T07:19:45;5.70;;;1.50;;
72895;SDS011;61036;53.224;6.554;2022-08-20T07:22:13;4.57;;;1.43;;
72895;SDS011;61036;53.224;6.554;2022-08-20T07:24:39;6.67;;;1.87;;
72895;SDS011;61036;53.224;6.554;2022-08-20T07:27:07;5.90;;;1.30;;
72895;SDS011;61036;53.224;6.554;2022-08-20T07:29:35;3.80;;;1.30;;
72895;SDS011;61036;53.224;6.554;2022-08-20T07:32:19;6.23;;;1.60;;
72895;SDS011;61036;53.224;6.554;2022-08-20T07:35:06;3.37;;;1.43;;
72895;SDS011;61036;53.224;6.554;2022-08-20T07:37:37;6.40;;;1.50;;
72895;SDS011;61036;53.224;6.554;2022-08-20T07:40:05;4.60;;;1.37;;
72895;SDS011;61036;53.224;6.554;2022-08-20T07:42:32;5.00;;;1.27;;
72895;SDS011;61036;53.224;6.554;2022-08-20T07:44:58;7.30;;;1.93;;
72895;SDS011;61036;53.224;6.554;2022-08-20T07:47:24;6.33;;;1.73;;
72895;SDS011;61036;53.224;6.554;2022-08-20T07:49:50;5.83;;;1.50;;
72895;SDS011;61036;53.224;6.554;2022-08-20T07:52:15;6.70;;;1.70;;
72895;SDS011;61036;53.224;6.554;2022-08-20T07:54:41;7.37;;;1.80;;
72895;SDS011;61036;53.224;6.554;2022-08-20T07:57:10;7.17;;;2.10;;
72895;SDS011;61036;53.224;6.554;2022-08-20T07:59:36;4.13;;;1.43;;
72895;SDS011;61036;53.224;6.554;2022-08-20T08:02:03;5.47;;;1.47;;
72895;SDS011;61036;53.224;6.554;2022-08-20T08:04:29;10.03;;;1.93;;
72895;SDS011;61036;53.224;6.554;2022-08-20T08:06:55;6.53;;;1.37;;
72895;SDS011;61036;53.224;6.554;2022-08-20T08:09:24;4.87;;;1.70;;
72895;SDS011;61036;53.224;6.554;2022-08-20T08:11:50;5.60;;;1.23;;
72895;SDS011;61036;53.224;6.554;2022-08-20T08:14:23;7.47;;;2.00;;
72895;SDS011;61036;53.224;6.554;2022-08-20T08:16:54;6.67;;;1.60;;
72895;SDS011;61036;53.224;6.554;2022-08-20T08:19:22;6.07;;;1.77;;
72895;SDS011;61036;53.224;6.554;2022-08-20T08:21:49;4.90;;;1.30;;
72895;SDS011;61036;53.224;6.554;2022-08-20T08:24:15;4.60;;;1.33;;
72895;SDS011;61036;53.224;6.554;2022-08-20T08:26:42;7.97;;;1.70;;
72895;SDS011;61036;53.224;6.554;2022-08-20T08:29:08;5.30;;;1.43;;
72895;SDS011;61036;53.224;6.554;2022-08-20T08:31:37;5.00;;;1.30;;
72895;SDS011;61036;53.224;6.554;2022-08-20T08:34:02;6.30;;;1.60;;
72895;SDS011;61036;53.224;6.554;2022-08-20T08:36:31;7.10;;;1.80;;
72895;SDS011;61036;53.224;6.554;2022-08-20T08:38:56;6.00;;;1.50;;
72895;SDS011;61036;53.224;6.554;2022-08-20T08:44:09;8.43;;;1.73;;
72895;SDS011;61036;53.224;6.554;2022-08-20T08:46:42;6.50;;;1.73;;
72895;SDS011;61036;53.224;6.554;2022-08-20T08:49:13;7.60;;;1.97;;
72895;SDS011;61036;53.224;6.554;2022-08-20T08:51:45;5.50;;;1.47;;
72895;SDS011;61036;53.224;6.554;2022-08-20T08:54:17;5.23;;;1.53;;
72895;SDS011;61036;53.224;6.554;2022-08-20T08:56:45;6.07;;;1.50;;
72895;SDS011;61036;53.224;6.554;2022-08-20T08:59:11;4.30;;;1.60;;
72895;SDS011;61036;53.224;6.554;2022-08-20T09:01:52;4.30;;;1.60;;
72895;SDS011;61036;53.224;6.554;2022-08-20T09:04:20;4.00;;;1.40;;
72895;SDS011;61036;53.224;6.554;2022-08-20T09:06:48;6.00;;;1.80;;
72895;SDS011;61036;53.224;6.554;2022-08-20T09:11:52;5.00;;;1.77;;
72895;SDS011;61036;53.224;6.554;2022-08-20T09:14:20;4.93;;;1.40;;
72895;SDS011;61036;53.224;6.554;2022-08-20T09:16:50;4.97;;;1.60;;
72895;SDS011;61036;53.224;6.554;2022-08-20T09:19:15;5.67;;;1.70;;
72895;SDS011;61036;53.224;6.554;2022-08-20T09:21:41;5.23;;;1.60;;
72895;SDS011;61036;53.224;6.554;2022-08-20T09:24:07;5.00;;;1.70;;
72895;SDS011;61036;53.224;6.554;2022-08-20T09:26:33;4.10;;;1.47;;
72895;SDS011;61036;53.224;6.554;2022-08-20T09:28:59;7.23;;;1.73;;
72895;SDS011;61036;53.224;6.554;2022-08-20T09:31:25;6.77;;;1.90;;
72895;SDS011;61036;53.224;6.554;2022-08-20T09:33:51;6.00;;;1.80;;
72895;SDS011;61036;53.224;6.554;2022-08-20T09:36:18;5.50;;;1.53;;
72895;SDS011;61036;53.224;6.554;2022-08-20T09:38:44;4.20;;;1.27;;
72895;SDS011;61036;53.224;6.554;2022-08-20T09:41:10;6.60;;;2.00;;
72895;SDS011;61036;53.224;6.554;2022-08-20T09:43:35;7.80;;;2.10;;
72895;SDS011;61036;53.224;6.554;2022-08-20T09:46:01;4.47;;;1.70;;
72895;SDS011;61036;53.224;6.554;2022-08-20T09:48:27;5.67;;;1.70;;
72895;SDS011;61036;53.224;6.554;2022-08-20T09:50:55;5.67;;;1.87;;
72895;SDS011;61036;53.224;6.554;2022-08-20T09:53:21;6.30;;;1.57;;
72895;SDS011;61036;53.224;6.554;2022-08-20T09:55:48;6.30;;;1.87;;
72895;SDS011;61036;53.224;6.554;2022-08-20T09:58:21;7.07;;;2.00;;
72895;SDS011;61036;53.224;6.554;2022-08-20T10:01:11;6.47;;;2.27;;
72895;SDS011;61036;53.224;6.554;2022-08-20T10:03:41;6.17;;;1.87;;
72895;SDS011;61036;53.224;6.554;2022-08-20T10:06:10;6.37;;;1.90;;
72895;SDS011;61036;53.224;6.554;2022-08-20T10:08:39;8.90;;;2.00;;
72895;SDS011;61036;53.224;6.554;2022-08-20T10:11:08;7.37;;;2.00;;
72895;SDS011;61036;53.224;6.554;2022-08-20T10:13:36;4.73;;;1.70;;
72895;SDS011;61036;53.224;6.554;2022-08-20T10:16:02;6.00;;;2.03;;
72895;SDS011;61036;53.224;6.554;2022-08-20T10:18:29;6.47;;;1.60;;
72895;SDS011;61036;53.224;6.554;2022-08-20T10:20:55;4.90;;;1.60;;
72895;SDS011;61036;53.224;6.554;2022-08-20T10:23:21;5.73;;;1.80;;
72895;SDS011;61036;53.224;6.554;2022-08-20T10:25:47;5.53;;;1.77;;
72895;SDS011;61036;53.224;6.554;2022-08-20T10:28:13;6.77;;;1.93;;
72895;SDS011;61036;53.224;6.554;2022-08-20T10:30:42;7.17;;;1.90;;
72895;SDS011;61036;53.224;6.554;2022-08-20T10:33:11;5.97;;;1.97;;
72895;SDS011;61036;53.224;6.554;2022-08-20T10:35:36;6.67;;;1.97;;
72895;SDS011;61036;53.224;6.554;2022-08-20T10:38:02;6.00;;;1.83;;
72895;SDS011;61036;53.224;6.554;2022-08-20T10:40:27;5.50;;;2.10;;
72895;SDS011;61036;53.224;6.554;2022-08-20T10:42:53;5.40;;;1.63;;
72895;SDS011;61036;53.224;6.554;2022-08-20T10:45:19;5.17;;;1.97;;
72895;SDS011;61036;53.224;6.554;2022-08-20T10:47:44;4.77;;;1.80;;
72895;SDS011;61036;53.224;6.554;2022-08-20T10:50:11;9.30;;;2.10;;
72895;SDS011;61036;53.224;6.554;2022-08-20T10:52:40;8.33;;;2.00;;
72895;SDS011;61036;53.224;6.554;2022-08-20T10:55:06;6.27;;;2.00;;
72895;SDS011;61036;53.224;6.554;2022-08-20T10:57:33;6.70;;;2.30;;
72895;SDS011;61036;53.224;6.554;2022-08-20T10:59:59;6.47;;;2.13;;
72895;SDS011;61036;53.224;6.554;2022-08-20T11:02:28;5.53;;;2.10;;
72895;SDS011;61036;53.224;6.554;2022-08-20T11:04:58;7.40;;;2.00;;
72895;SDS011;61036;53.224;6.554;2022-08-20T11:07:43;7.27;;;2.40;;
72895;SDS011;61036;53.224;6.554;2022-08-20T11:10:09;6.33;;;1.90;;
72895;SDS011;61036;53.224;6.554;2022-08-20T11:12:35;9.77;;;2.50;;
72895;SDS011;61036;53.224;6.554;2022-08-20T11:15:02;6.27;;;2.27;;
72895;SDS011;61036;53.224;6.554;2022-08-20T11:17:30;5.97;;;1.83;;
72895;SDS011;61036;53.224;6.554;2022-08-20T11:19:59;7.13;;;2.10;;
72895;SDS011;61036;53.224;6.554;2022-08-20T11:22:26;5.70;;;1.97;;
72895;SDS011;61036;53.224;6.554;2022-08-20T11:24:53;7.50;;;2.03;;
72895;SDS011;61036;53.224;6.554;2022-08-20T11:27:23;6.77;;;2.10;;
72895;SDS011;61036;53.224;6.554;2022-08-20T11:29:51;6.47;;;2.23;;
72895;SDS011;61036;53.224;6.554;2022-08-20T11:32:17;5.70;;;1.90;;
72895;SDS011;61036;53.224;6.554;2022-08-20T11:34:45;5.00;;;1.93;;
72895;SDS011;61036;53.224;6.554;2022-08-20T11:37:12;5.47;;;1.93;;
72895;SDS011;61036;53.224;6.554;2022-08-20T11:39:41;5.53;;;1.83;;
72895;SDS011;61036;53.224;6.554;2022-08-20T11:42:08;7.07;;;2.23;;
72895;SDS011;61036;53.224;6.554;2022-08-20T11:44:34;7.60;;;2.23;;
72895;SDS011;61036;53.224;6.554;2022-08-20T11:47:02;6.97;;;1.90;;
72895;SDS011;61036;53.224;6.554;2022-08-20T11:49:30;6.30;;;2.03;;
72895;SDS011;61036;53.224;6.554;2022-08-20T11:52:00;6.13;;;2.20;;
72895;SDS011;61036;53.224;6.554;2022-08-20T11:54:26;6.07;;;1.93;;
72895;SDS011;61036;53.224;6.554;2022-08-20T11:56:57;6.83;;;2.23;;
72895;SDS011;61036;53.224;6.554;2022-08-20T11:59:23;6.60;;;2.20;;
72895;SDS011;61036;53.224;6.554;2022-08-20T12:01:50;5.00;;;2.20;;
72895;SDS011;61036;53.224;6.554;2022-08-20T12:04:17;6.07;;;2.10;;
72895;SDS011;61036;53.224;6.554;2022-08-20T12:06:44;5.63;;;2.00;;
72895;SDS011;61036;53.224;6.554;2022-08-20T12:09:12;5.13;;;2.00;;
72895;SDS011;61036;53.224;6.554;2022-08-20T12:11:37;6.57;;;2.00;;
72895;SDS011;61036;53.224;6.554;2022-08-20T12:14:03;5.30;;;1.83;;
72895;SDS011;61036;53.224;6.554;2022-08-20T12:16:28;5.30;;;1.87;;
72895;SDS011;61036;53.224;6.554;2022-08-20T12:18:54;5.90;;;1.90;;
72895;SDS011;61036;53.224;6.554;2022-08-20T12:21:21;5.10;;;1.90;;
72895;SDS011;61036;53.224;6.554;2022-08-20T12:23:46;7.57;;;3.27;;
72895;SDS011;61036;53.224;6.554;2022-08-20T12:26:13;5.53;;;2.17;;
72895;SDS011;61036;53.224;6.554;2022-08-20T12:28:40;8.30;;;2.47;;
72895;SDS011;61036;53.224;6.554;2022-08-20T12:31:09;6.07;;;2.10;;
72895;SDS011;61036;53.224;6.554;2022-08-20T12:33:36;7.60;;;2.33;;
72895;SDS011;61036;53.224;6.554;2022-08-20T12:36:01;5.57;;;2.00;;
72895;SDS011;61036;53.224;6.554;2022-08-20T12:38:28;6.40;;;2.10;;
72895;SDS011;61036;53.224;6.554;2022-08-20T12:40:53;7.13;;;2.47;;
72895;SDS011;61036;53.224;6.554;2022-08-20T12:43:19;6.87;;;2.20;;
72895;SDS011;61036;53.224;6.554;2022-08-20T12:45:44;6.17;;;2.10;;
72895;SDS011;61036;53.224;6.554;2022-08-20T12:48:12;5.77;;;1.90;;
72895;SDS011;61036;53.224;6.554;2022-08-20T12:50:39;7.17;;;2.23;;
72895;SDS011;61036;53.224;6.554;2022-08-20T12:53:06;6.70;;;2.30;;
72895;SDS011;61036;53.224;6.554;2022-08-20T12:55:33;7.23;;;2.00;;
72895;SDS011;61036;53.224;6.554;2022-08-20T12:58:00;5.03;;;2.30;;
72895;SDS011;61036;53.224;6.554;2022-08-20T13:00:39;6.90;;;2.33;;
72895;SDS011;61036;53.224;6.554;2022-08-20T13:03:11;5.93;;;2.13;;
72895;SDS011;61036;53.224;6.554;2022-08-20T13:05:42;6.87;;;2.07;;
72895;SDS011;61036;53.224;6.554;2022-08-20T13:08:09;7.67;;;2.20;;
72895;SDS011;61036;53.224;6.554;2022-08-20T13:10:38;7.23;;;2.20;;
72895;SDS011;61036;53.224;6.554;2022-08-20T13:13:08;6.37;;;2.10;;
72895;SDS011;61036;53.224;6.554;2022-08-20T13:15:35;6.67;;;2.17;;
72895;SDS011;61036;53.224;6.554;2022-08-20T13:18:02;6.80;;;2.27;;
72895;SDS011;61036;53.224;6.554;2022-08-20T13:20:29;8.17;;;2.30;;
72895;SDS011;61036;53.224;6.554;2022-08-20T13:22:55;4.77;;;2.10;;
72895;SDS011;61036;53.224;6.554;2022-08-20T13:25:22;7.03;;;2.47;;
72895;SDS011;61036;53.224;6.554;2022-08-20T13:27:55;7.53;;;2.50;;
72895;SDS011;61036;53.224;6.554;2022-08-20T13:30:22;6.77;;;2.20;;
72895;SDS011;61036;53.224;6.554;2022-08-20T13:32:48;6.33;;;2.50;;
72895;SDS011;61036;53.224;6.554;2022-08-20T13:35:14;5.57;;;2.30;;
72895;SDS011;61036;53.224;6.554;2022-08-20T13:37:40;7.90;;;2.73;;
72895;SDS011;61036;53.224;6.554;2022-08-20T13:40:07;8.83;;;2.50;;
72895;SDS011;61036;53.224;6.554;2022-08-20T13:42:34;7.47;;;2.47;;
72895;SDS011;61036;53.224;6.554;2022-08-20T13:45:02;5.67;;;2.40;;
72895;SDS011;61036;53.224;6.554;2022-08-20T13:47:32;7.63;;;2.50;;
72895;SDS011;61036;53.224;6.554;2022-08-20T13:50:05;7.00;;;2.40;;
72895;SDS011;61036;53.224;6.554;2022-08-20T13:52:39;9.53;;;2.80;;
72895;SDS011;61036;53.224;6.554;2022-08-20T13:55:06;5.03;;;2.30;;
72895;SDS011;61036;53.224;6.554;2022-08-20T13:57:34;5.57;;;2.20;;
72895;SDS011;61036;53.224;6.554;2022-08-20T14:00:04;7.73;;;2.33;;
72895;SDS011;61036;53.224;6.554;2022-08-20T14:02:36;6.67;;;2.50;;
72895;SDS011;61036;53.224;6.554;2022-08-20T14:05:01;7.83;;;2.63;;
72895;SDS011;61036;53.224;6.554;2022-08-20T14:07:28;7.13;;;2.20;;
72895;SDS011;61036;53.224;6.554;2022-08-20T14:09:56;9.40;;;2.60;;
72895;SDS011;61036;53.224;6.554;2022-08-20T14:12:24;8.20;;;2.77;;
72895;SDS011;61036;53.224;6.554;2022-08-20T14:14:52;7.03;;;2.40;;
72895;SDS011;61036;53.224;6.554;2022-08-20T14:17:25;8.73;;;2.20;;
72895;SDS011;61036;53.224;6.554;2022-08-20T14:19:55;7.30;;;2.60;;
72895;SDS011;61036;53.224;6.554;2022-08-20T14:22:32;6.17;;;2.20;;
72895;SDS011;61036;53.224;6.554;2022-08-20T14:24:57;10.23;;;2.40;;
72895;SDS011;61036;53.224;6.554;2022-08-20T14:27:28;6.23;;;2.23;;
72895;SDS011;61036;53.224;6.554;2022-08-20T14:29:54;5.73;;;2.40;;
72895;SDS011;61036;53.224;6.554;2022-08-20T14:32:22;6.97;;;2.17;;
72895;SDS011;61036;53.224;6.554;2022-08-20T14:34:50;4.90;;;2.07;;
72895;SDS011;61036;53.224;6.554;2022-08-20T14:39:51;7.47;;;2.67;;
72895;SDS011;61036;53.224;6.554;2022-08-20T14:42:18;7.13;;;2.43;;
72895;SDS011;61036;53.224;6.554;2022-08-20T14:44:46;5.53;;;2.20;;
72895;SDS011;61036;53.224;6.554;2022-08-20T14:47:14;7.33;;;2.27;;
72895;SDS011;61036;53.224;6.554;2022-08-20T14:49:41;8.47;;;2.53;;
72895;SDS011;61036;53.224;6.554;2022-08-20T14:52:08;6.13;;;2.40;;
72895;SDS011;61036;53.224;6.554;2022-08-20T14:54:34;7.33;;;2.37;;
72895;SDS011;61036;53.224;6.554;2022-08-20T14:57:02;8.67;;;2.33;;
72895;SDS011;61036;53.224;6.554;2022-08-20T14:59:29;5.00;;;2.10;;
72895;SDS011;61036;53.224;6.554;2022-08-20T15:01:55;5.83;;;2.10;;
72895;SDS011;61036;53.224;6.554;2022-08-20T15:04:21;8.40;;;2.60;;